Weather History for Faribault, MN

Change the Weather History Date:

Monday, April 14, 2014

  Actual Average Record
Temperature  
Mean Temperature 34 °F -  
Max Temperature 39 °F 53 °F 89 °F (2003)
Min Temperature 28 °F 34 °F 19 °F (1950)
Degree Days  
Heating Degree Days 32    
Moisture  
Dew Point 11 °F    
Average Humidity 41    
Maximum Humidity 56    
Minimum Humidity 22    
Precipitation  
Precipitation 0.00 in - - ()
Sea Level Pressure  
Sea Level Pressure 30.01 in    
Wind  
Wind Speed 16 mph (NW)    
Max Wind Speed 25 mph    
Max Gust Speed 31 mph    
Visibility 10 miles    
Events      
Averages and records for this station are not official NWS values.
T = Trace of Precipitation, MM = Missing Value Source: NWS Daily Summary

Daily Weather History Graph

Daily Weather History Graph

Search for Another Location

Airport:

Trip Planner

Search our weather history database for the weather conditions in past years. The results will help you decide how hot, cold, wet, or windy it might be!

Date:

Astronomy

Apr. 14, 2014 Rise Set
Actual Time 6:31 AM CDT 7:56 PM CDT
Civil Twilight 6:01 AM CDT 8:26 PM CDT
Nautical Twilight 5:24 AM CDT 9:03 PM CDT
Astronomical Twilight 4:45 AM CDT 9:42 PM CDT
Moon 7:35 PM CDT (4/14) 6:05 AM CDT (4/14)
Length of Visible Light 14h 25m
Length of Day
13h 25m
Full, 100% of the Moon is Illuminated
Apr 14
Full
Apr 15
Full
Apr 22
Last Quarter
Apr 29
New
May 6
First Quarter

Hourly Weather History & Observations

Time (CDT) Temp. Windchill Dew Point Humidity Pressure Visibility Wind Dir Wind Speed Gust Speed Precip Events Conditions
12:13 AM 37.4 °F 30.8 °F 23.0 °F 56% 29.87 in 10.0 mi North 9.2 mph - N/A   Overcast
12:34 AM 37.4 °F 27.5 °F 21.2 °F 52% 29.88 in 10.0 mi North 18.4 mph 25.3 mph N/A   Mostly Cloudy
12:54 AM 35.6 °F 24.8 °F 21.2 °F 56% 29.88 in 10.0 mi NNW 19.6 mph 27.6 mph N/A   Overcast
1:13 AM 35.6 °F 25.9 °F 21.2 °F 56% 29.89 in 10.0 mi NNW 16.1 mph 29.9 mph N/A   Overcast
1:34 AM 35.6 °F 24.0 °F 19.4 °F 52% 29.89 in 10.0 mi NNW 23.0 mph 28.8 mph N/A   Overcast
1:54 AM 35.6 °F 26.6 °F 19.4 °F 52% 29.89 in 10.0 mi NNW 13.8 mph 25.3 mph N/A   Overcast
2:14 AM 35.6 °F 24.8 °F 19.4 °F 52% 29.89 in 10.0 mi NNW 19.6 mph 26.5 mph N/A   Overcast
2:34 AM 33.8 °F 22.8 °F 19.4 °F 56% 29.90 in 10.0 mi NNW 18.4 mph 27.6 mph N/A   Overcast
2:54 AM 33.8 °F 22.2 °F 19.4 °F 56% 29.91 in 10.0 mi NNW 20.7 mph 26.5 mph N/A   Overcast
3:14 AM 33.8 °F 22.2 °F 19.4 °F 56% 29.90 in 10.0 mi NNW 20.7 mph 27.6 mph N/A   Overcast
3:33 AM 33.8 °F 22.8 °F 19.4 °F 56% 29.90 in 10.0 mi NNW 18.4 mph 28.8 mph N/A   Overcast
3:54 AM 33.8 °F 22.5 °F 19.4 °F 56% 29.90 in 10.0 mi NNW 19.6 mph 26.5 mph N/A   Overcast
4:14 AM 33.8 °F 23.9 °F 19.4 °F 56% 29.91 in 10.0 mi NNW 15.0 mph 25.3 mph N/A   Overcast
4:33 AM 33.8 °F 25.3 °F 19.4 °F 56% 29.91 in 10.0 mi NNW 11.5 mph 24.2 mph N/A   Overcast
4:54 AM 33.8 °F 22.8 °F 17.6 °F 52% 29.91 in 10.0 mi North 18.4 mph 25.3 mph N/A   Overcast
5:14 AM 32.0 °F 18.9 °F 17.6 °F 55% 29.92 in 10.0 mi NNW 24.2 mph 28.8 mph N/A   Overcast
5:33 AM 32.0 °F 19.8 °F 17.6 °F 55% 29.92 in 10.0 mi NNW 20.7 mph 26.5 mph N/A   Overcast
5:54 AM 32.0 °F 20.8 °F 15.8 °F 51% 29.93 in 10.0 mi North 17.3 mph 26.5 mph N/A   Overcast
6:14 AM 30.2 °F 16.2 °F 15.8 °F 55% 29.95 in 10.0 mi NNW 25.3 mph 31.1 mph N/A   Mostly Cloudy
6:33 AM 30.2 °F 18.5 °F 15.8 °F 55% 29.97 in 10.0 mi NNW 17.3 mph 25.3 mph N/A   Mostly Cloudy
7:14 AM 30.2 °F 17.8 °F 14.0 °F 51% 29.98 in 10.0 mi NNW 19.6 mph 27.6 mph N/A   Scattered Clouds
7:34 AM 30.2 °F 19.8 °F 15.8 °F 55% 29.99 in 10.0 mi NNW 13.8 mph 24.2 mph N/A   Scattered Clouds
7:54 AM 30.2 °F 16.8 °F 15.8 °F 55% 30.00 in 10.0 mi NNW 23.0 mph 29.9 mph N/A   Scattered Clouds
8:14 AM 30.2 °F 17.4 °F 14.0 °F 51% 30.01 in 10.0 mi NNW 20.7 mph 26.5 mph N/A   Scattered Clouds
8:34 AM 30.2 °F 18.9 °F 14.0 °F 51% 30.02 in 10.0 mi NNW 16.1 mph 21.9 mph N/A   Scattered Clouds
8:54 AM 30.2 °F 19.3 °F 14.0 °F 51% 30.02 in 10.0 mi NNW 15.0 mph 21.9 mph N/A   Scattered Clouds
9:14 AM 32.0 °F 20.8 °F 14.0 °F 48% 30.02 in 10.0 mi NNW 17.3 mph - N/A   Scattered Clouds
9:34 AM 32.0 °F 20.8 °F 14.0 °F 48% 30.02 in 10.0 mi NNW 17.3 mph 25.3 mph N/A   Clear
9:54 AM 32.0 °F 19.8 °F 14.0 °F 48% 30.03 in 10.0 mi NW 20.7 mph 26.5 mph N/A   Scattered Clouds
10:14 AM 32.0 °F 20.1 °F 14.0 °F 48% 30.03 in 10.0 mi NW 19.6 mph 25.3 mph N/A   Scattered Clouds
10:34 AM 32.0 °F 21.2 °F 12.2 °F 44% 30.04 in 10.0 mi NNW 16.1 mph 21.9 mph N/A   Clear
10:54 AM 33.8 °F 23.9 °F 12.2 °F 41% 30.05 in 10.0 mi NW 15.0 mph 24.2 mph N/A   Clear
11:14 AM 33.8 °F 24.3 °F 10.4 °F 38% 30.05 in 10.0 mi NW 13.8 mph 26.5 mph N/A   Clear
11:34 AM 33.8 °F 22.8 °F 8.6 °F 35% 30.05 in 10.0 mi NW 18.4 mph 21.9 mph N/A   Clear
11:54 AM 35.6 °F 25.5 °F 8.6 °F 33% 30.06 in 10.0 mi NW 17.3 mph 26.5 mph N/A   Clear
12:14 PM 35.6 °F 25.9 °F 8.6 °F 33% 30.06 in 10.0 mi NNW 16.1 mph 24.2 mph N/A   Clear
12:34 PM 35.6 °F 25.5 °F 8.6 °F 33% 30.06 in 10.0 mi NW 17.3 mph 24.2 mph N/A   Clear
12:54 PM 37.4 °F 28.2 °F 6.8 °F 28% 30.05 in 10.0 mi NW 16.1 mph 21.9 mph N/A   Clear
1:14 PM 37.4 °F 28.5 °F 8.6 °F 30% 30.05 in 10.0 mi NNW 15.0 mph 24.2 mph N/A   Clear
1:34 PM 37.4 °F 26.6 °F 6.8 °F 28% 30.05 in 10.0 mi NNW 21.9 mph 27.6 mph N/A   Clear
1:54 PM 37.4 °F 28.5 °F 8.6 °F 30% 30.06 in 10.0 mi NW 15.0 mph 24.2 mph N/A   Clear
2:14 PM 37.4 °F 27.8 °F 6.8 °F 28% 30.06 in 10.0 mi NNW 17.3 mph 25.3 mph N/A   Scattered Clouds
2:34 PM 39.2 °F 29.3 °F 8.6 °F 28% 30.05 in 10.0 mi NW 20.7 mph 26.5 mph N/A   Scattered Clouds
2:54 PM 37.4 °F 27.8 °F 5.0 °F 26% 30.05 in 10.0 mi NW 17.3 mph 24.2 mph N/A   Scattered Clouds
3:14 PM 37.4 °F 27.5 °F 5.0 °F 26% 30.05 in 10.0 mi NNW 18.4 mph 25.3 mph N/A   Mostly Cloudy
3:34 PM 37.4 °F 28.9 °F 5.0 °F 26% 30.05 in 10.0 mi NNW 13.8 mph 23.0 mph N/A   Scattered Clouds
3:54 PM 37.4 °F 28.5 °F 5.0 °F 26% 30.04 in 10.0 mi NNW 15.0 mph 25.3 mph N/A   Scattered Clouds
4:14 PM 37.4 °F 27.8 °F 3.2 °F 24% 30.04 in 10.0 mi NW 17.3 mph 24.2 mph N/A   Scattered Clouds
4:34 PM 37.4 °F 28.5 °F 3.2 °F 24% 30.04 in 10.0 mi NW 15.0 mph 24.2 mph N/A   Scattered Clouds
4:54 PM 37.4 °F 28.2 °F 3.2 °F 24% 30.04 in 10.0 mi WNW 16.1 mph 21.9 mph N/A   Scattered Clouds
5:13 PM 39.2 °F 30.5 °F 3.2 °F 22% 30.04 in 10.0 mi NW 16.1 mph - N/A   Scattered Clouds
5:34 PM 37.4 °F 29.3 °F 3.2 °F 24% 30.04 in 10.0 mi NW 12.7 mph 24.2 mph N/A   Scattered Clouds
5:54 PM 37.4 °F 27.5 °F 3.2 °F 24% 30.04 in 10.0 mi NW 18.4 mph 25.3 mph N/A   Mostly Cloudy
6:13 PM 37.4 °F 29.3 °F 1.4 °F 22% 30.05 in 10.0 mi NW 12.7 mph 23.0 mph N/A   Mostly Cloudy
6:34 PM 35.6 °F 25.9 °F 3.2 °F 26% 30.06 in 10.0 mi WNW 16.1 mph 19.6 mph N/A   Mostly Cloudy
6:54 PM 35.6 °F 25.9 °F 3.2 °F 26% 30.06 in 10.0 mi NW 16.1 mph 24.2 mph N/A   Scattered Clouds
7:13 PM 35.6 °F 25.9 °F 3.2 °F 26% 30.07 in 10.0 mi NW 16.1 mph 20.7 mph N/A   Scattered Clouds
7:34 PM 33.8 °F 24.8 °F 5.0 °F 30% 30.07 in 10.0 mi NW 12.7 mph 18.4 mph N/A   Scattered Clouds
7:54 PM 33.8 °F 26.4 °F 6.8 °F 32% 30.07 in 10.0 mi WNW 9.2 mph - N/A   Scattered Clouds
8:14 PM 33.8 °F 23.9 °F 8.6 °F 35% 30.08 in 10.0 mi NW 15.0 mph 20.7 mph N/A   Scattered Clouds
8:34 PM 33.8 °F 26.4 °F 5.0 °F 30% 30.09 in 10.0 mi WNW 9.2 mph - N/A   Scattered Clouds
8:54 PM 33.8 °F 26.4 °F 5.0 °F 30% 30.09 in 10.0 mi WNW 9.2 mph 20.7 mph N/A   Scattered Clouds
9:14 PM 32.0 °F 24.8 °F 6.8 °F 35% 30.09 in 10.0 mi NW 8.1 mph - N/A   Clear
9:34 PM 30.2 °F 23.4 °F 8.6 °F 40% 30.10 in 10.0 mi WNW 6.9 mph - N/A   Clear
9:53 PM 30.2 °F 23.4 °F 8.6 °F 40% 30.10 in 10.0 mi WNW 6.9 mph - N/A   Clear
10:14 PM 30.2 °F 23.4 °F 8.6 °F 40% 30.11 in 10.0 mi WNW 6.9 mph - N/A   Clear
10:34 PM 30.2 °F 22.6 °F 8.6 °F 40% 30.10 in 10.0 mi WNW 8.1 mph - N/A   Clear
10:53 PM 30.2 °F 21.9 °F 8.6 °F 40% 30.10 in 10.0 mi WNW 9.2 mph - N/A   Clear
11:14 PM 30.2 °F 22.6 °F 10.4 °F 44% 30.11 in 10.0 mi WNW 8.1 mph - N/A   Clear
11:34 PM 28.4 °F 19.7 °F 10.4 °F 47% 30.11 in 10.0 mi WNW 9.2 mph - N/A   Clear
11:54 PM 28.4 °F 19.7 °F 10.4 °F 47% 30.11 in 10.0 mi WNW 9.2 mph - N/A   Clear